createdAt,value
2022-10-26T00:01:15.804Z,100.00
2022-10-26T00:03:44.054Z,100.00
2022-10-26T00:06:13.371Z,100.00
2022-10-26T00:08:40.529Z,100.00
2022-10-26T00:11:07.845Z,100.00
2022-10-26T00:13:35.641Z,100.00
2022-10-26T00:16:07.918Z,100.00
2022-10-26T00:18:34.373Z,100.00
2022-10-26T00:21:05.485Z,100.00
2022-10-26T00:23:32.513Z,100.00
2022-10-26T00:25:59.418Z,100.00
2022-10-26T00:28:26.239Z,100.00
2022-10-26T00:30:52.918Z,100.00
2022-10-26T00:33:19.446Z,100.00
2022-10-26T00:35:53.870Z,100.00
2022-10-26T00:38:20.736Z,100.00
2022-10-26T00:40:47.418Z,100.00
2022-10-26T00:43:19.896Z,100.00
2022-10-26T00:45:47.734Z,100.00
2022-10-26T00:48:25.084Z,100.00
2022-10-26T00:50:54.088Z,100.00
2022-10-26T00:53:20.815Z,100.00
2022-10-26T00:55:50.005Z,100.00
2022-10-26T00:58:17.767Z,100.00
2022-10-26T01:00:44.963Z,100.00
2022-10-26T01:03:11.884Z,100.00
2022-10-26T01:05:42.125Z,100.00
2022-10-26T01:08:09.330Z,100.00
2022-10-26T01:10:38.733Z,100.00
2022-10-26T01:13:06.088Z,100.00
2022-10-26T01:16:01.754Z,100.00
2022-10-26T01:18:35.374Z,100.00
2022-10-26T01:21:27.933Z,100.00
2022-10-26T01:24:09.385Z,100.00
2022-10-26T01:27:02.058Z,100.00
2022-10-26T01:29:35.440Z,100.00
2022-10-26T01:32:14.270Z,100.00
2022-10-26T01:35:03.788Z,100.00
2022-10-26T01:37:35.895Z,100.00
2022-10-26T01:40:23.889Z,100.00
2022-10-26T01:42:54.921Z,100.00
2022-10-26T01:45:21.749Z,100.00
2022-10-26T01:47:49.871Z,100.00
2022-10-26T01:50:18.290Z,100.00
2022-10-26T01:52:44.801Z,100.00
2022-10-26T01:55:36.068Z,100.00
2022-10-26T01:58:13.333Z,100.00
2022-10-26T02:00:50.763Z,100.00
2022-10-26T02:03:38.788Z,100.00
2022-10-26T02:06:10.817Z,100.00
2022-10-26T02:09:05.951Z,100.00
2022-10-26T02:11:41.254Z,100.00
2022-10-26T02:16:58.096Z,100.00
2022-10-26T02:19:38.441Z,100.00
2022-10-26T02:22:24.473Z,100.00
2022-10-26T02:24:53.268Z,100.00
2022-10-26T02:27:34.185Z,100.00
2022-10-26T02:30:02.854Z,100.00
2022-10-26T02:32:33.938Z,100.00
2022-10-26T02:35:03.309Z,100.00
2022-10-26T02:37:31.906Z,100.00
2022-10-26T02:40:02.776Z,100.00
2022-10-26T02:42:29.796Z,100.00
2022-10-26T02:45:03.112Z,100.00
2022-10-26T02:47:30.000Z,100.00
2022-10-26T02:49:56.576Z,100.00
2022-10-26T02:52:31.621Z,100.00
2022-10-26T02:55:30.094Z,100.00
2022-10-26T02:58:01.328Z,100.00
2022-10-26T03:00:29.356Z,100.00
2022-10-26T03:02:58.258Z,100.00
2022-10-26T03:05:27.581Z,100.00
2022-10-26T03:07:55.277Z,100.00
2022-10-26T03:10:22.410Z,100.00
2022-10-26T03:12:49.335Z,100.00
2022-10-26T03:15:16.410Z,100.00
2022-10-26T03:17:42.862Z,100.00
2022-10-26T03:20:10.474Z,100.00
2022-10-26T03:22:36.957Z,100.00
2022-10-26T03:25:04.271Z,100.00
2022-10-26T03:27:30.774Z,100.00
2022-10-26T03:29:57.794Z,100.00
2022-10-26T03:32:24.341Z,100.00
2022-10-26T03:34:50.869Z,100.00
2022-10-26T03:37:17.370Z,100.00
2022-10-26T03:39:43.812Z,100.00
2022-10-26T03:42:10.261Z,99.95
2022-10-26T03:44:36.695Z,99.22
2022-10-26T03:47:03.186Z,98.87
2022-10-26T03:49:29.610Z,99.57
2022-10-26T03:51:56.071Z,98.78
2022-10-26T03:54:22.497Z,99.99
2022-10-26T03:56:52.639Z,99.91
2022-10-26T03:59:21.520Z,99.41
2022-10-26T04:01:48.089Z,99.29
2022-10-26T04:04:14.680Z,97.17
2022-10-26T04:06:41.185Z,98.88
2022-10-26T04:09:08.190Z,98.28
2022-10-26T04:11:34.638Z,99.18
2022-10-26T04:14:01.239Z,98.98
2022-10-26T04:16:31.067Z,99.38
2022-10-26T04:19:00.069Z,98.83
2022-10-26T04:21:26.550Z,100.00
2022-10-26T04:23:53.017Z,99.73
2022-10-26T04:26:19.498Z,99.64
2022-10-26T04:28:45.934Z,99.28
2022-10-26T04:31:12.370Z,99.90
2022-10-26T04:33:38.798Z,99.74
2022-10-26T04:36:05.524Z,100.00
2022-10-26T04:38:31.985Z,100.00
2022-10-26T04:40:58.428Z,100.00
2022-10-26T04:43:24.922Z,100.00
2022-10-26T04:45:55.389Z,99.21
2022-10-26T04:48:21.909Z,97.76
2022-10-26T04:50:48.495Z,97.72
2022-10-26T04:53:14.987Z,97.35
2022-10-26T04:55:41.753Z,97.89
2022-10-26T04:58:08.234Z,98.39
2022-10-26T05:00:35.005Z,98.76
2022-10-26T05:03:02.838Z,99.26
2022-10-26T05:05:31.094Z,99.21
2022-10-26T05:07:57.991Z,99.19
2022-10-26T05:10:25.697Z,99.46
2022-10-26T05:12:56.957Z,100.00
2022-10-26T05:15:23.429Z,99.63
2022-10-26T05:18:00.274Z,99.20
2022-10-26T05:20:30.703Z,99.58
2022-10-26T05:22:58.648Z,99.06
2022-10-26T05:25:25.789Z,98.64
2022-10-26T05:27:52.288Z,99.65
2022-10-26T05:30:18.798Z,99.69
2022-10-26T05:32:45.225Z,99.85
2022-10-26T05:35:11.738Z,100.00
2022-10-26T05:37:38.224Z,99.85
2022-10-26T05:40:05.201Z,100.00
2022-10-26T05:42:31.792Z,100.00
2022-10-26T05:44:58.262Z,100.00
2022-10-26T05:47:24.721Z,100.00
2022-10-26T05:49:51.178Z,100.00
2022-10-26T05:52:17.615Z,100.00
2022-10-26T05:54:44.086Z,100.00
2022-10-26T05:57:12.507Z,100.00
2022-10-26T05:59:39.342Z,100.00
2022-10-26T06:02:24.591Z,100.00
2022-10-26T06:04:52.386Z,100.00
2022-10-26T06:07:22.677Z,100.00
2022-10-26T06:09:49.745Z,100.00
2022-10-26T06:12:19.346Z,100.00
2022-10-26T06:14:46.739Z,100.00
2022-10-26T06:17:35.977Z,100.00
2022-10-26T06:20:16.752Z,100.00
2022-10-26T06:23:12.366Z,100.00
2022-10-26T06:26:03.211Z,100.00
2022-10-26T06:29:03.741Z,100.00
2022-10-26T06:31:30.238Z,100.00
2022-10-26T06:34:00.027Z,100.00
2022-10-26T06:36:28.585Z,100.00
2022-10-26T06:39:16.654Z,100.00
2022-10-26T06:41:43.572Z,100.00
2022-10-26T06:44:15.590Z,97.65
2022-10-26T06:47:00.983Z,96.82
2022-10-26T06:49:36.374Z,96.06
2022-10-26T06:52:18.312Z,96.24
2022-10-26T06:54:49.777Z,95.74
2022-10-26T06:57:18.455Z,95.19
2022-10-26T06:59:53.029Z,95.37
2022-10-26T07:02:20.641Z,95.26
2022-10-26T07:04:47.870Z,95.67
2022-10-26T07:07:18.055Z,95.71
2022-10-26T07:09:44.507Z,95.65
2022-10-26T07:12:11.086Z,95.68
2022-10-26T07:14:37.570Z,95.24
2022-10-26T07:17:05.112Z,95.15
2022-10-26T07:19:31.613Z,94.55
2022-10-26T07:22:01.775Z,96.15
2022-10-26T07:24:29.039Z,96.61
2022-10-26T07:26:57.155Z,97.54
2022-10-26T07:29:25.042Z,97.80
2022-10-26T07:34:23.705Z,98.54
2022-10-26T07:36:51.477Z,99.48
2022-10-26T07:39:17.957Z,99.68
2022-10-26T07:41:45.756Z,99.83
2022-10-26T07:44:12.201Z,100.00
2022-10-26T07:46:38.681Z,99.67
2022-10-26T07:49:05.127Z,99.21
2022-10-26T07:51:31.561Z,98.68
2022-10-26T07:53:58.050Z,98.68
2022-10-26T07:56:24.591Z,98.29
2022-10-26T07:58:54.815Z,98.39
2022-10-26T08:01:22.147Z,98.01
2022-10-26T08:03:52.050Z,97.50
2022-10-26T08:06:18.493Z,97.46
2022-10-26T08:08:47.638Z,97.05
2022-10-26T08:11:15.393Z,97.11
2022-10-26T08:13:42.159Z,96.75
2022-10-26T08:16:09.669Z,96.85
2022-10-26T08:18:36.550Z,97.20
2022-10-26T08:21:11.415Z,97.11
2022-10-26T08:23:38.514Z,97.83
2022-10-26T08:26:05.357Z,97.28
2022-10-26T08:28:31.793Z,96.50
2022-10-26T08:30:58.449Z,96.56
2022-10-26T08:33:25.829Z,95.87
2022-10-26T08:35:56.926Z,95.74
2022-10-26T08:38:23.736Z,95.89
2022-10-26T08:40:51.026Z,95.19
2022-10-26T08:43:34.214Z,95.16
2022-10-26T08:46:27.585Z,95.81
2022-10-26T08:49:04.871Z,95.47
2022-10-26T08:51:37.401Z,94.95
2022-10-26T08:54:13.786Z,95.36
2022-10-26T08:56:50.091Z,95.31
2022-10-26T08:59:41.117Z,94.51
2022-10-26T09:02:16.042Z,94.90
2022-10-26T09:04:44.270Z,94.68
2022-10-26T09:07:22.589Z,94.31
2022-10-26T09:10:02.724Z,94.25
2022-10-26T09:12:48.843Z,93.86
2022-10-26T09:15:27.598Z,93.51
2022-10-26T09:18:02.463Z,93.75
2022-10-26T09:21:05.451Z,93.83
2022-10-26T09:23:54.110Z,93.84
2022-10-26T09:26:31.420Z,93.52
2022-10-26T09:29:02.758Z,93.40
2022-10-26T09:31:32.811Z,92.18
2022-10-26T09:34:02.386Z,90.69
2022-10-26T09:36:28.988Z,90.72
2022-10-26T09:38:57.706Z,87.85
2022-10-26T09:41:40.194Z,85.98
2022-10-26T09:44:31.990Z,86.25
2022-10-26T09:46:58.605Z,85.66
2022-10-26T09:49:34.548Z,85.32
2022-10-26T09:52:01.117Z,85.15
2022-10-26T09:54:27.661Z,84.82
2022-10-26T09:57:00.334Z,84.50
2022-10-26T09:59:27.037Z,85.19
2022-10-26T10:01:53.610Z,84.75
2022-10-26T10:04:22.929Z,83.51
2022-10-26T10:07:13.250Z,84.17
2022-10-26T10:09:40.062Z,85.41
2022-10-26T10:12:18.001Z,83.26
2022-10-26T10:14:56.691Z,82.84
2022-10-26T10:17:23.837Z,82.95
2022-10-26T10:19:51.730Z,82.17
2022-10-26T10:22:25.828Z,82.42
2022-10-26T10:25:00.160Z,82.59
2022-10-26T10:27:28.613Z,81.92
2022-10-26T10:29:59.953Z,82.09
2022-10-26T10:32:35.386Z,79.98
2022-10-26T10:35:23.471Z,79.64
2022-10-26T10:37:51.291Z,79.22
2022-10-26T10:40:23.492Z,77.97
2022-10-26T10:42:52.778Z,75.78
2022-10-26T10:45:23.284Z,73.81
2022-10-26T10:48:02.473Z,74.35
2022-10-26T10:50:29.922Z,73.33
2022-10-26T10:53:19.298Z,72.25
2022-10-26T10:55:58.297Z,71.93
2022-10-26T10:58:50.766Z,71.11
2022-10-26T11:01:21.905Z,71.28
2022-10-26T11:04:05.072Z,71.16
2022-10-26T11:06:34.898Z,71.90
2022-10-26T11:09:16.511Z,71.75
2022-10-26T11:11:49.021Z,69.88
2022-10-26T11:14:20.662Z,70.17
2022-10-26T11:16:56.800Z,69.03
2022-10-26T11:19:29.260Z,68.24
2022-10-26T11:21:56.607Z,69.18
2022-10-26T11:24:31.713Z,68.23
2022-10-26T11:27:04.333Z,65.68
2022-10-26T11:29:43.480Z,66.83
2022-10-26T11:32:22.574Z,66.95
2022-10-26T11:35:18.671Z,67.33
2022-10-26T11:38:02.730Z,67.00
2022-10-26T11:40:53.097Z,67.18
2022-10-26T11:43:30.810Z,67.82
2022-10-26T11:46:09.298Z,66.69
2022-10-26T11:48:44.270Z,66.67
2022-10-26T11:51:21.331Z,65.72
2022-10-26T11:53:50.111Z,66.27
2022-10-26T11:56:30.890Z,66.44
2022-10-26T11:58:59.274Z,66.61
2022-10-26T12:01:28.746Z,66.35
2022-10-26T12:03:58.034Z,65.57
2022-10-26T12:06:31.334Z,65.50
2022-10-26T12:09:05.861Z,64.66
2022-10-26T12:11:56.738Z,65.56
2022-10-26T12:14:39.953Z,63.71
2022-10-26T12:17:15.161Z,65.62
2022-10-26T12:19:58.791Z,64.37
2022-10-26T12:22:34.439Z,63.76
2022-10-26T12:25:15.193Z,65.05
2022-10-26T12:27:41.819Z,63.71
2022-10-26T12:30:17.439Z,64.31
2022-10-26T12:32:44.012Z,64.06
2022-10-26T12:35:29.141Z,63.27
2022-10-26T12:37:55.782Z,62.10
2022-10-26T12:40:34.243Z,62.58
2022-10-26T12:43:16.092Z,61.42
2022-10-26T12:45:44.325Z,60.24
2022-10-26T12:48:38.840Z,62.35
2022-10-26T12:51:39.910Z,61.73
2022-10-26T12:54:33.109Z,62.20
2022-10-26T12:57:24.118Z,62.24
2022-10-26T13:00:05.899Z,62.19
2022-10-26T13:02:38.513Z,63.43
2022-10-26T13:05:42.334Z,63.77
2022-10-26T13:08:11.788Z,61.99
2022-10-26T13:11:05.803Z,64.47
2022-10-26T13:13:35.139Z,62.94
2022-10-26T13:16:02.695Z,62.98
2022-10-26T13:18:30.210Z,63.91
2022-10-26T13:21:15.624Z,61.67
2022-10-26T13:23:48.472Z,60.47
2022-10-26T13:26:21.010Z,59.26
2022-10-26T13:28:48.894Z,58.89
2022-10-26T13:31:34.233Z,61.37
2022-10-26T13:34:12.104Z,62.40
2022-10-26T13:37:03.462Z,61.61
2022-10-26T13:39:38.460Z,59.71
2022-10-26T13:42:07.175Z,61.13
2022-10-26T13:44:40.390Z,61.46
2022-10-26T13:47:15.054Z,61.05
2022-10-26T13:49:45.800Z,61.15
2022-10-26T13:52:21.195Z,60.09
2022-10-26T13:54:54.976Z,59.59
2022-10-26T13:57:29.265Z,56.93
2022-10-26T14:00:01.370Z,57.31
2022-10-26T14:02:43.110Z,57.51
2022-10-26T14:05:14.938Z,56.53
2022-10-26T14:07:45.587Z,54.95
2022-10-26T14:10:27.054Z,55.41
2022-10-26T14:12:54.187Z,54.07
2022-10-26T14:15:43.717Z,54.57
2022-10-26T14:18:20.338Z,54.35
2022-10-26T14:21:00.941Z,52.74
2022-10-26T14:23:33.238Z,54.58
2022-10-26T14:25:59.739Z,53.34
2022-10-26T14:28:30.474Z,55.39
2022-10-26T14:31:23.727Z,53.69
2022-10-26T14:33:50.983Z,53.91
2022-10-26T14:36:21.406Z,54.49
2022-10-26T14:38:53.958Z,54.11
2022-10-26T14:41:21.489Z,55.14
2022-10-26T14:43:48.400Z,55.46
2022-10-26T14:46:17.461Z,55.74
2022-10-26T14:48:53.418Z,56.20
2022-10-26T14:51:25.469Z,55.37
2022-10-26T14:53:57.155Z,55.06
2022-10-26T14:56:35.502Z,55.59
2022-10-26T14:59:32.829Z,55.43
2022-10-26T15:02:15.452Z,55.02
2022-10-26T15:04:57.694Z,55.41
2022-10-26T15:07:24.841Z,56.52
2022-10-26T15:09:53.097Z,56.02
2022-10-26T15:12:31.596Z,57.76
2022-10-26T15:17:56.853Z,61.16
2022-10-26T15:20:26.281Z,62.41
2022-10-26T15:23:03.459Z,65.79
2022-10-26T15:25:33.569Z,66.28
2022-10-26T15:28:10.935Z,70.73
2022-10-26T15:30:37.543Z,71.58
2022-10-26T15:33:21.780Z,74.46
2022-10-26T15:35:48.430Z,76.00
2022-10-26T15:38:15.525Z,78.52
2022-10-26T15:40:43.677Z,80.35
2022-10-26T15:43:11.525Z,81.65
2022-10-26T15:45:51.957Z,82.13
2022-10-26T15:48:23.809Z,84.79
2022-10-26T15:50:50.242Z,87.38
2022-10-26T15:53:20.726Z,89.49
2022-10-26T15:55:48.526Z,89.72
2022-10-26T15:58:15.869Z,88.03
2022-10-26T16:00:42.725Z,87.42
2022-10-26T16:03:22.154Z,89.94
2022-10-26T16:05:55.209Z,92.99
2022-10-26T16:08:21.681Z,91.99
2022-10-26T16:10:48.233Z,91.33
2022-10-26T16:13:15.623Z,92.00
2022-10-26T16:15:42.729Z,94.90
2022-10-26T16:18:09.293Z,93.54
2022-10-26T16:20:36.556Z,92.41
2022-10-26T16:23:06.675Z,91.46
2022-10-26T16:25:39.829Z,91.86
2022-10-26T16:28:06.322Z,93.09
2022-10-26T16:30:33.036Z,95.84
2022-10-26T16:32:59.563Z,97.49
2022-10-26T16:35:26.145Z,99.59
2022-10-26T16:37:52.589Z,100.00
2022-10-26T16:40:19.033Z,99.05
2022-10-26T16:42:46.406Z,98.13
2022-10-26T16:45:14.587Z,98.71
2022-10-26T16:47:41.349Z,98.63
2022-10-26T16:50:09.779Z,98.65
2022-10-26T16:52:37.388Z,99.20
2022-10-26T16:55:05.702Z,99.18
2022-10-26T16:57:32.761Z,99.60
2022-10-26T16:59:59.529Z,100.00
2022-10-26T17:02:26.136Z,100.00
2022-10-26T17:04:52.767Z,100.00
2022-10-26T17:07:19.254Z,100.00
2022-10-26T17:09:45.738Z,100.00
2022-10-26T17:12:12.267Z,100.00
2022-10-26T17:14:38.753Z,100.00
2022-10-26T17:17:05.762Z,100.00
2022-10-26T17:19:32.202Z,100.00
2022-10-26T17:21:58.669Z,100.00
2022-10-26T17:24:25.227Z,100.00
2022-10-26T17:26:51.687Z,100.00
2022-10-26T17:29:18.185Z,100.00
2022-10-26T17:31:44.641Z,100.00
2022-10-26T17:34:11.138Z,100.00
2022-10-26T17:36:37.720Z,100.00
2022-10-26T17:39:04.325Z,100.00
2022-10-26T17:41:30.846Z,100.00
2022-10-26T17:43:57.386Z,100.00
2022-10-26T17:46:25.967Z,100.00
2022-10-26T17:48:57.027Z,100.00
2022-10-26T17:51:24.429Z,100.00
2022-10-26T17:53:51.407Z,100.00
2022-10-26T17:56:23.093Z,100.00
2022-10-26T17:58:53.974Z,100.00
2022-10-26T18:01:21.308Z,100.00
2022-10-26T18:03:47.943Z,100.00
2022-10-26T18:06:14.599Z,100.00
2022-10-26T18:08:41.120Z,100.00
2022-10-26T18:11:13.675Z,100.00
2022-10-26T18:13:40.546Z,100.00
2022-10-26T18:16:09.918Z,100.00
2022-10-26T18:18:37.308Z,100.00
2022-10-26T18:21:09.385Z,100.00
2022-10-26T18:23:36.218Z,100.00
2022-10-26T18:26:09.856Z,100.00
2022-10-26T18:28:39.797Z,100.00
2022-10-26T18:31:08.455Z,100.00
2022-10-26T18:33:35.801Z,100.00
2022-10-26T18:36:11.202Z,100.00
2022-10-26T18:38:37.851Z,100.00
2022-10-26T18:41:04.372Z,100.00
2022-10-26T18:43:31.047Z,100.00
2022-10-26T18:46:05.593Z,100.00
2022-10-26T18:48:32.426Z,100.00
2022-10-26T18:51:07.318Z,100.00
2022-10-26T18:53:35.589Z,100.00
2022-10-26T18:56:04.512Z,100.00
2022-10-26T18:58:36.023Z,100.00
2022-10-26T19:01:23.787Z,100.00
2022-10-26T19:03:59.173Z,100.00
2022-10-26T19:06:28.554Z,100.00
2022-10-26T19:08:55.563Z,100.00
2022-10-26T19:11:23.930Z,100.00
2022-10-26T19:13:52.715Z,100.00
2022-10-26T19:16:43.965Z,100.00
2022-10-26T19:19:08.929Z,100.00
2022-10-26T19:21:36.685Z,100.00
2022-10-26T19:24:03.583Z,100.00
2022-10-26T19:26:36.731Z,100.00
2022-10-26T19:29:07.222Z,100.00
2022-10-26T19:31:35.650Z,100.00
2022-10-26T19:34:02.729Z,100.00
2022-10-26T19:36:29.888Z,100.00
2022-10-26T19:38:56.491Z,100.00
2022-10-26T19:41:23.964Z,100.00
2022-10-26T19:43:50.766Z,100.00
2022-10-26T19:46:21.055Z,100.00
2022-10-26T19:48:56.173Z,100.00
2022-10-26T19:51:23.816Z,100.00
2022-10-26T19:53:50.269Z,100.00
2022-10-26T19:56:16.887Z,100.00
2022-10-26T19:58:44.379Z,100.00
2022-10-26T20:01:12.467Z,100.00
2022-10-26T20:03:38.985Z,100.00
2022-10-26T20:06:11.145Z,100.00
2022-10-26T20:08:37.697Z,100.00
2022-10-26T20:11:05.525Z,100.00
2022-10-26T20:13:32.144Z,100.00
2022-10-26T20:15:58.784Z,100.00
2022-10-26T20:18:25.513Z,100.00
2022-10-26T20:20:51.993Z,100.00
2022-10-26T20:23:18.429Z,100.00
2022-10-26T20:25:47.058Z,100.00
2022-10-26T20:28:14.357Z,100.00
2022-10-26T20:30:42.056Z,100.00
2022-10-26T20:33:09.573Z,100.00
2022-10-26T20:35:36.805Z,100.00
2022-10-26T20:38:04.960Z,100.00
2022-10-26T20:40:31.741Z,100.00
2022-10-26T20:42:58.486Z,100.00
2022-10-26T20:45:30.426Z,100.00
2022-10-26T20:47:58.341Z,100.00
2022-10-26T20:50:27.740Z,100.00
2022-10-26T20:53:00.827Z,100.00
2022-10-26T20:55:50.574Z,100.00
2022-10-26T20:58:38.999Z,100.00
2022-10-26T21:01:09.825Z,100.00
2022-10-26T21:03:36.328Z,100.00
2022-10-26T21:06:02.824Z,100.00
2022-10-26T21:08:29.268Z,100.00
2022-10-26T21:10:55.811Z,100.00
2022-10-26T21:13:22.349Z,100.00
2022-10-26T21:15:48.777Z,100.00
2022-10-26T21:18:15.313Z,100.00
2022-10-26T21:20:41.810Z,100.00
2022-10-26T21:23:08.245Z,100.00
2022-10-26T21:25:36.656Z,100.00
2022-10-26T21:28:03.690Z,100.00
2022-10-26T21:30:30.245Z,100.00
2022-10-26T21:35:28.460Z,100.00
2022-10-26T21:37:55.347Z,100.00
2022-10-26T21:40:21.876Z,100.00
2022-10-26T21:42:49.879Z,100.00
2022-10-26T21:45:17.128Z,100.00
2022-10-26T21:47:43.616Z,100.00
2022-10-26T21:50:10.395Z,100.00
2022-10-26T21:52:36.816Z,100.00
2022-10-26T21:55:03.408Z,100.00
2022-10-26T21:57:29.829Z,100.00
2022-10-26T21:59:56.290Z,100.00
2022-10-26T22:02:22.859Z,100.00
2022-10-26T22:04:49.337Z,100.00
2022-10-26T22:07:16.922Z,100.00
2022-10-26T22:09:55.131Z,100.00
2022-10-26T22:12:29.817Z,100.00
2022-10-26T22:14:56.238Z,100.00
2022-10-26T22:17:22.775Z,100.00
2022-10-26T22:19:49.210Z,100.00
2022-10-26T22:22:15.653Z,100.00
2022-10-26T22:24:42.104Z,100.00
2022-10-26T22:27:08.577Z,100.00
2022-10-26T22:29:35.090Z,100.00
2022-10-26T22:32:01.507Z,100.00
2022-10-26T22:34:27.962Z,100.00
2022-10-26T22:36:54.399Z,100.00
2022-10-26T22:39:21.025Z,100.00
2022-10-26T22:41:49.529Z,100.00
2022-10-26T22:44:15.953Z,100.00
2022-10-26T22:46:42.422Z,100.00
2022-10-26T22:49:11.367Z,100.00
2022-10-26T22:51:37.810Z,100.00
2022-10-26T22:54:05.320Z,100.00
2022-10-26T22:56:34.266Z,100.00
2022-10-26T22:59:01.099Z,100.00
2022-10-26T23:01:33.839Z,100.00
2022-10-26T23:04:00.589Z,100.00
2022-10-26T23:06:29.535Z,100.00
2022-10-26T23:08:56.360Z,100.00
2022-10-26T23:11:24.416Z,100.00
2022-10-26T23:13:55.092Z,100.00
2022-10-26T23:16:22.184Z,100.00
2022-10-26T23:18:49.209Z,100.00
2022-10-26T23:21:16.702Z,100.00
2022-10-26T23:23:43.384Z,100.00
2022-10-26T23:26:15.112Z,100.00
2022-10-26T23:28:42.326Z,100.00
2022-10-26T23:31:19.478Z,100.00
2022-10-26T23:33:46.385Z,100.00
2022-10-26T23:36:12.877Z,100.00
2022-10-26T23:38:39.379Z,100.00
2022-10-26T23:41:08.216Z,100.00
2022-10-26T23:43:37.384Z,100.00
2022-10-26T23:46:04.362Z,100.00
2022-10-26T23:48:30.842Z,100.00
2022-10-26T23:50:57.796Z,100.00
2022-10-26T23:53:25.569Z,100.00
2022-10-26T23:55:52.848Z,100.00
2022-10-26T23:58:19.822Z,100.00
